Terminal Aerodrome Forecast
Issued by NWS Shreveport, LA

Home | Current Version | Previous Version | Text Only | Print | Product List | Glossary On
Versions: 1 2 3 4 5 6 7 8 9 10 11 12 13 14 15 16 17 18 19 20 21 22 23 24 25
000
FTUS44 KSHV 282059 AAA
TAFGGG
TAF AMD
KGGG 282059Z 2821/2918 12009G15KT P6SM SKC
     FM290000 12010KT P6SM FEW050 SCT100 BKN250
     FM290400 13008KT P6SM VCTS BKN050CB OVC100
     FM290900 14007KT 4SM -TSRA OVC007CB
     FM291400 15009KT 6SM BR OVC015=

USA.gov is the U.S. government's official web portal to all federal, state and local government web resources and services.